Time;durP1;ratioP1;P1;durP2;ratioP2;P2;SDS_P1;SDS_P2;PMS_P1;PMS_P2;Temp;Humidity;BMP_temperature;BMP_pressure;BME280_temperature;BME280_humidity;BME280_pressure;Samples;Min_cycle;Max_cycle;Signal;HPM_P1;HPM_P2
2021/04/19 00:02:01;;;;;;;26.13;16.27;;;10.40;75.90;;;;;;4912776;29;20119;-76
2021/04/19 00:04:27;;;;;;;32.35;13.75;;;10.30;76.10;;;;;;4914570;29;20104;-76
2021/04/19 00:06:53;;;;;;;20.77;10.48;;;10.30;76.20;;;;;;4900952;29;20071;-76
2021/04/19 00:09:18;;;;;;;21.65;10.88;;;10.20;76.20;;;;;;4903336;29;20052;-76
2021/04/19 00:11:44;;;;;;;16.50;10.25;;;10.20;76.20;;;;;;4897061;29;20459;-76
2021/04/19 00:14:10;;;;;;;17.98;10.60;;;10.20;76.10;;;;;;4912055;29;20112;-76
2021/04/19 00:16:35;;;;;;;20.85;11.02;;;10.20;76.20;;;;;;4899187;29;20064;-76
2021/04/19 00:19:02;;;;;;;21.77;10.38;;;10.20;76.20;;;;;;4899479;29;20072;-76
2021/04/19 00:21:28;;;;;;;18.10;9.70;;;10.10;76.20;;;;;;4900150;29;20486;-76
2021/04/19 00:23:53;;;;;;;19.83;10.45;;;10.10;76.20;;;;;;4911131;29;20047;-76
2021/04/19 00:26:19;;;;;;;25.48;10.90;;;10.00;76.30;;;;;;4912803;29;20389;-76
2021/04/19 00:28:44;;;;;;;21.33;10.73;;;10.00;76.60;;;;;;4898238;29;20032;-76
2021/04/19 00:31:10;;;;;;;21.48;10.35;;;9.90;76.60;;;;;;4908610;29;20040;-77
2021/04/19 00:33:36;;;;;;;22.80;10.85;;;9.90;76.60;;;;;;4898629;29;20062;-76
2021/04/19 00:36:02;;;;;;;23.17;11.02;;;9.90;76.50;;;;;;4911331;29;20069;-76
2021/04/19 00:38:28;;;;;;;20.00;10.38;;;9.90;76.60;;;;;;4910976;29;20106;-76
2021/04/19 00:40:54;;;;;;;16.60;9.52;;;9.80;76.60;;;;;;4911857;29;20039;-76
2021/04/19 00:43:21;;;;;;;20.35;10.35;;;9.80;76.60;;;;;;4898666;29;20088;-76
2021/04/19 00:45:51;;;;;;;19.20;10.05;;;9.80;76.60;;;;;;4910023;29;20118;-76
2021/04/19 00:48:18;;;;;;;16.80;9.93;;;9.80;76.60;;;;;;4884696;29;20043;-76
2021/04/19 00:50:44;;;;;;;23.90;10.38;;;9.80;76.50;;;;;;4911683;29;20024;-76
2021/04/19 00:53:12;;;;;;;17.98;11.75;;;9.80;76.50;;;;;;4905904;29;20116;-76
2021/04/19 00:55:38;;;;;;;21.73;11.95;;;9.80;76.40;;;;;;4911983;29;20028;-76
2021/04/19 00:58:03;;;;;;;17.38;10.38;;;9.80;76.30;;;;;;4882698;29;20055;-76
2021/04/19 01:00:33;;;;;;;20.83;10.50;;;9.80;76.30;;;;;;4909117;29;20043;-77
2021/04/19 01:03:00;;;;;;;18.35;9.48;;;9.80;76.40;;;;;;4901975;29;20024;-76
2021/04/19 01:05:33;;;;;;;15.43;9.07;;;9.70;76.40;;;;;;4908153;29;20099;-76
2021/04/19 01:07:59;;;;;;;16.35;10.30;;;9.70;76.40;;;;;;4911639;29;20029;-76
2021/04/19 01:10:25;;;;;;;18.40;10.10;;;9.70;76.40;;;;;;4897764;29;20028;-76
2021/04/19 01:12:50;;;;;;;17.65;9.82;;;9.70;76.50;;;;;;4901749;29;20063;-76
2021/04/19 01:15:17;;;;;;;16.52;9.93;;;9.70;76.60;;;;;;4897535;29;20116;-76
2021/04/19 01:17:44;;;;;;;19.85;11.52;;;9.60;76.50;;;;;;4897314;29;20052;-76
2021/04/19 01:20:12;;;;;;;17.42;10.10;;;9.60;76.60;;;;;;4899660;29;20029;-76
2021/04/19 01:22:39;;;;;;;18.58;9.98;;;9.60;76.60;;;;;;4897719;29;20085;-76
2021/04/19 01:25:10;;;;;;;14.73;9.75;;;9.50;76.60;;;;;;4915117;29;20039;-76
2021/04/19 01:27:36;;;;;;;14.85;9.13;;;9.50;76.80;;;;;;4910170;29;20027;-77
2021/04/19 01:30:04;;;;;;;19.20;9.55;;;9.50;76.90;;;;;;4881695;29;20032;-76
2021/04/19 01:32:30;;;;;;;24.02;9.50;;;9.40;76.90;;;;;;4896599;29;20041;-76
2021/04/19 01:34:56;;;;;;;15.60;9.20;;;9.50;77.00;;;;;;4897500;29;20033;-76
2021/04/19 01:37:21;;;;;;;19.90;9.15;;;9.40;76.80;;;;;;4896245;29;20025;-76
2021/04/19 01:39:47;;;;;;;15.52;8.73;;;9.40;76.70;;;;;;4905891;29;20390;-76
2021/04/19 01:42:13;;;;;;;18.80;9.30;;;9.50;76.70;;;;;;4896749;29;20075;-76
2021/04/19 01:44:38;;;;;;;17.25;8.85;;;9.40;76.50;;;;;;4881047;29;20040;-76
2021/04/19 01:47:05;;;;;;;15.45;9.32;;;9.40;76.50;;;;;;4899278;29;20076;-76
2021/04/19 01:49:31;;;;;;;12.85;8.10;;;9.40;76.40;;;;;;4902100;29;20394;-76
2021/04/19 01:51:58;;;;;;;16.13;8.32;;;9.30;76.50;;;;;;4897584;29;20021;-76
2021/04/19 01:54:24;;;;;;;19.63;8.50;;;9.30;76.40;;;;;;4896029;29;20501;-76
2021/04/19 01:56:50;;;;;;;15.77;8.65;;;9.30;76.10;;;;;;4898288;29;20032;-76
2021/04/19 01:59:17;;;;;;;17.50;8.98;;;9.30;76.20;;;;;;4900891;29;20040;-76
2021/04/19 02:02:03;;;;;;;13.75;8.82;;;9.30;76.90;;;;;;4896289;29;20490;-76
2021/04/19 02:04:40;;;;;;;14.43;8.60;;;9.20;76.30;;;;;;4896785;29;20386;-76
2021/04/19 02:07:36;;;;;;;18.83;8.77;;;9.20;76.50;;;;;;4895927;29;20077;-76
2021/04/19 02:10:28;;;;;;;13.98;8.32;;;9.20;76.60;;;;;;4885700;29;20401;-76
2021/04/19 02:13:16;;;;;;;14.57;8.55;;;9.20;76.60;;;;;;4898358;29;20077;-76
2021/04/19 02:15:56;;;;;;;15.23;9.23;;;9.10;76.90;;;;;;4899785;29;20031;-76
2021/04/19 02:18:33;;;;;;;17.30;9.13;;;9.10;76.90;;;;;;4900417;29;20044;-76
2021/04/19 02:21:07;;;;;;;14.00;9.75;;;9.00;76.90;;;;;;4900847;29;20367;-76
2021/04/19 02:23:36;;;;;;;25.92;10.10;;;8.90;77.00;;;;;;4905176;29;20033;-74
2021/04/19 02:26:09;;;;;;;17.30;9.63;;;8.90;77.30;;;;;;4899744;29;20396;-74
2021/04/19 02:28:39;;;;;;;14.88;9.40;;;8.80;77.30;;;;;;4900557;29;20119;-74
2021/04/19 02:31:09;;;;;;;20.35;9.25;;;8.90;77.40;;;;;;4900879;29;20390;-74
2021/04/19 02:33:40;;;;;;;13.00;9.27;;;8.80;77.40;;;;;;4909843;29;20024;-74
2021/04/19 02:36:11;;;;;;;27.08;10.45;;;8.80;77.50;;;;;;4911611;29;20103;-74
2021/04/19 02:38:39;;;;;;;24.27;10.07;;;8.80;77.60;;;;;;4910017;29;20066;-74
2021/04/19 02:41:09;;;;;;;17.50;10.43;;;8.70;77.70;;;;;;4911482;29;20119;-74
2021/04/19 02:43:40;;;;;;;18.58;10.40;;;8.70;77.80;;;;;;4899475;29;20524;-74
2021/04/19 02:46:07;;;;;;;17.88;9.52;;;8.60;77.90;;;;;;4900125;29;20036;-74
2021/04/19 02:48:34;;;;;;;21.42;9.95;;;8.60;78.20;;;;;;4899884;29;20056;-74
2021/04/19 02:51:02;;;;;;;14.70;10.32;;;8.50;78.20;;;;;;4900262;29;20354;-74
2021/04/19 02:53:29;;;;;;;21.35;9.73;;;8.50;78.30;;;;;;4912511;29;20088;-75
2021/04/19 02:55:55;;;;;;;19.70;9.77;;;8.50;78.40;;;;;;4909682;29;20406;-74
2021/04/19 02:58:41;;;;;;;23.85;10.85;;;8.50;78.50;;;;;;4899551;29;20482;-74
2021/04/19 03:01:09;;;;;;;16.73;9.85;;;8.50;78.80;;;;;;4897707;29;20040;-74
2021/04/19 03:03:38;;;;;;;19.23;10.77;;;8.40;78.90;;;;;;4899261;29;20370;-74
2021/04/19 03:06:06;;;;;;;27.15;10.35;;;8.40;79.00;;;;;;4910481;29;20036;-74
2021/04/19 03:08:37;;;;;;;19.92;10.05;;;8.40;79.00;;;;;;4918792;29;20474;-74
2021/04/19 03:11:19;;;;;;;23.02;11.15;;;8.40;79.10;;;;;;4898693;29;20035;-74
2021/04/19 03:13:47;;;;;;;18.60;10.68;;;8.40;79.20;;;;;;4894025;29;20045;-74
2021/04/19 03:16:13;;;;;;;24.08;11.18;;;8.40;79.10;;;;;;4903263;29;20447;-74
2021/04/19 03:18:40;;;;;;;18.77;10.93;;;8.40;79.30;;;;;;4898079;29;20063;-74
2021/04/19 03:21:12;;;;;;;19.33;10.63;;;8.30;79.40;;;;;;4899954;29;20524;-74
2021/04/19 03:23:50;;;;;;;21.83;10.32;;;8.30;79.50;;;;;;4899100;29;20041;-74
2021/04/19 03:26:18;;;;;;;16.95;9.68;;;8.20;79.70;;;;;;4879811;29;20064;-74
2021/04/19 03:28:49;;;;;;;17.08;10.13;;;8.20;79.80;;;;;;4894146;29;20119;-75
2021/04/19 03:31:37;;;;;;;15.32;10.50;;;8.20;79.90;;;;;;4887903;29;20035;-74
2021/04/19 03:34:10;;;;;;;20.13;11.35;;;8.20;79.90;;;;;;4898432;29;20573;-74
2021/04/19 03:36:37;;;;;;;19.77;10.27;;;8.20;80.00;;;;;;4905961;29;20028;-74
2021/04/19 03:39:05;;;;;;;20.85;10.60;;;8.20;80.10;;;;;;4900221;29;20035;-74
2021/04/19 03:41:37;;;;;;;20.63;10.75;;;8.20;80.30;;;;;;4899001;29;20081;-74
2021/04/19 03:44:05;;;;;;;19.65;10.45;;;8.20;80.30;;;;;;4915504;29;20082;-74
2021/04/19 03:46:32;;;;;;;19.15;9.73;;;8.20;80.30;;;;;;4904459;29;20032;-74
2021/04/19 03:49:10;;;;;;;16.58;10.13;;;8.20;80.30;;;;;;4897800;29;20060;-74
2021/04/19 03:51:37;;;;;;;18.15;10.40;;;8.20;80.40;;;;;;4897578;29;20034;-74
2021/04/19 03:54:04;;;;;;;19.58;10.88;;;8.20;80.30;;;;;;4902990;29;20108;-74
2021/04/19 03:56:33;;;;;;;24.38;10.98;;;8.30;80.20;;;;;;4903379;29;20116;-74
2021/04/19 03:59:03;;;;;;;21.45;10.98;;;8.30;80.10;;;;;;4897810;29;20482;-74
2021/04/19 04:01:30;;;;;;;17.52;11.10;;;8.30;80.10;;;;;;4898565;29;20131;-74
2021/04/19 04:03:57;;;;;;;19.58;11.43;;;8.30;80.00;;;;;;4897724;29;20032;-74
2021/04/19 04:06:25;;;;;;;20.70;10.63;;;8.30;79.90;;;;;;4915383;29;20366;-74
2021/04/19 04:08:52;;;;;;;23.35;10.65;;;8.30;79.90;;;;;;4905677;29;20494;-74
2021/04/19 04:11:18;;;;;;;21.05;12.65;;;8.30;80.00;;;;;;4911027;29;20115;-74
2021/04/19 04:13:45;;;;;;;20.17;12.68;;;8.30;80.20;;;;;;4901528;29;20055;-74
2021/04/19 04:16:10;;;;;;;23.55;15.93;;;8.30;80.20;;;;;;4918059;29;20083;-74
2021/04/19 04:18:36;;;;;;;24.88;14.18;;;8.20;80.10;;;;;;4902128;29;20037;-74
2021/04/19 04:21:02;;;;;;;26.13;17.73;;;8.20;80.10;;;;;;4888481;29;20043;-74
2021/04/19 04:23:28;;;;;;;28.83;17.13;;;8.20;80.10;;;;;;4904077;29;20036;-74
2021/04/19 04:25:53;;;;;;;37.08;20.17;;;8.30;80.10;;;;;;4902784;29;20030;-74
2021/04/19 04:28:19;;;;;;;33.38;18.27;;;8.30;80.00;;;;;;4916491;29;20047;-74
2021/04/19 04:30:45;;;;;;;27.45;18.00;;;8.30;80.10;;;;;;4902301;29;20036;-74
2021/04/19 04:33:10;;;;;;;26.42;17.38;;;8.20;80.20;;;;;;4913659;29;20040;-74
2021/04/19 04:35:37;;;;;;;24.45;16.05;;;8.20;80.30;;;;;;4908743;29;20036;-74
2021/04/19 04:38:03;;;;;;;26.92;20.00;;;8.10;80.30;;;;;;4881615;29;20144;-74
2021/04/19 04:40:31;;;;;;;25.13;18.10;;;8.10;80.50;;;;;;4881731;29;20509;-74
2021/04/19 04:43:06;;;;;;;23.00;13.05;;;8.10;80.60;;;;;;4894705;29;20045;-74
2021/04/19 04:45:33;;;;;;;21.48;14.55;;;8.10;80.60;;;;;;4899067;29;20050;-74
2021/04/19 04:48:02;;;;;;;19.42;11.95;;;8.10;80.70;;;;;;4901580;29;20029;-74
2021/04/19 04:50:49;;;;;;;;;;;8.10;80.80;;;;;;4904006;29;20124;-73
2021/04/19 04:53:35;;;;;;;21.27;12.85;;;8.10;80.60;;;;;;4897871;29;19916;-74
2021/04/19 04:56:01;;;;;;;19.08;12.13;;;8.00;80.80;;;;;;4906849;29;20044;-74
2021/04/19 04:58:28;;;;;;;26.95;12.32;;;8.00;80.80;;;;;;4912669;29;20087;-74
2021/04/19 05:00:55;;;;;;;20.00;12.90;;;8.00;80.80;;;;;;4900014;29;20048;-74
2021/04/19 05:03:23;;;;;;;23.92;12.25;;;7.90;80.90;;;;;;4897919;29;20031;-74
2021/04/19 05:05:50;;;;;;;21.60;12.43;;;7.90;81.10;;;;;;4896709;29;20044;-74
2021/04/19 05:08:16;;;;;;;17.48;11.30;;;7.90;81.10;;;;;;4896675;29;20037;-74
2021/04/19 05:10:43;;;;;;;19.35;11.43;;;7.90;81.30;;;;;;4891284;29;20041;-73
2021/04/19 05:13:17;;;;;;;18.90;11.60;;;7.90;81.40;;;;;;4897318;29;20116;-73
2021/04/19 05:15:44;;;;;;;19.80;12.45;;;8.00;81.50;;;;;;4885068;29;20055;-73
2021/04/19 05:18:17;;;;;;;23.52;12.35;;;8.00;81.20;;;;;;4898844;29;20039;-74
2021/04/19 05:20:44;;;;;;;25.08;12.50;;;8.10;81.20;;;;;;4898953;29;20024;-74
2021/04/19 05:23:10;;;;;;;17.65;12.55;;;8.10;81.00;;;;;;4896980;29;20031;-73
2021/04/19 05:25:36;;;;;;;17.63;12.43;;;8.00;81.00;;;;;;4896665;29;20029;-74
2021/04/19 05:28:02;;;;;;;19.17;12.73;;;8.10;81.00;;;;;;4905827;29;20020;-74
2021/04/19 05:30:29;;;;;;;20.90;12.43;;;8.10;81.00;;;;;;4901902;29;20506;-74
2021/04/19 05:32:57;;;;;;;21.27;11.70;;;8.10;81.10;;;;;;4907508;29;20036;-74
2021/04/19 05:35:22;;;;;;;20.33;12.48;;;8.10;81.20;;;;;;4898623;29;20036;-73
2021/04/19 05:37:52;;;;;;;19.75;12.02;;;8.00;81.20;;;;;;4907974;29;20020;-74
2021/04/19 05:40:20;;;;;;;28.88;12.98;;;8.00;81.40;;;;;;4896882;29;20047;-74
2021/04/19 05:42:46;;;;;;;21.90;12.70;;;8.00;81.30;;;;;;4895525;29;20410;-74
2021/04/19 05:45:15;;;;;;;19.10;12.55;;;8.10;81.30;;;;;;4905528;29;20032;-74
2021/04/19 05:47:49;;;;;;;25.05;13.30;;;8.10;81.40;;;;;;4900061;29;20032;-74
2021/04/19 05:50:16;;;;;;;21.58;13.02;;;8.10;81.40;;;;;;4901054;29;20053;-74
2021/04/19 05:52:44;;;;;;;18.95;12.65;;;8.10;81.30;;;;;;4899807;29;20056;-74
2021/04/19 05:55:10;;;;;;;20.40;13.73;;;8.10;81.90;;;;;;4900029;29;20033;-74
2021/04/19 05:58:11;;;;;;;29.92;18.38;;;8.10;81.30;;;;;;4904502;29;20041;-75
2021/04/19 06:00:43;;;;;;;26.67;18.20;;;8.20;81.40;;;;;;4900078;29;20493;-74
2021/04/19 06:03:21;;;;;;;38.70;16.35;;;8.10;81.20;;;;;;4901385;29;20148;-75
2021/04/19 06:06:15;;;;;;;25.95;13.95;;;8.20;81.10;;;;;;4899595;29;20054;-74
2021/04/19 06:09:05;;;;;;;27.30;12.80;;;8.10;81.00;;;;;;4913834;29;20496;-74
2021/04/19 06:11:58;;;;;;;22.95;12.52;;;8.20;81.30;;;;;;4919795;29;20036;-74
2021/04/19 06:14:28;;;;;;;25.70;12.57;;;8.10;81.30;;;;;;4894474;29;20063;-75
2021/04/19 06:16:56;;;;;;;29.65;12.82;;;8.20;81.30;;;;;;4899936;29;20028;-74
2021/04/19 06:19:23;;;;;;;16.52;9.45;;;8.20;81.60;;;;;;4900804;29;20036;-75
2021/04/19 06:21:50;;;;;;;22.58;13.07;;;8.20;81.80;;;;;;4901941;29;20033;-75
2021/04/19 06:24:16;;;;;;;20.73;12.63;;;8.20;82.30;;;;;;4902424;29;20032;-75
2021/04/19 06:26:42;;;;;;;20.27;13.55;;;8.20;83.30;;;;;;4899624;29;20033;-75
2021/04/19 06:29:08;;;;;;;19.85;12.35;;;8.20;83.00;;;;;;4900539;29;20578;-75
2021/04/19 06:31:36;;;;;;;24.45;13.45;;;8.10;83.20;;;;;;4899256;29;20029;-75
2021/04/19 06:34:08;;;;;;;24.45;13.13;;;8.10;83.60;;;;;;4899262;29;20032;-75
2021/04/19 06:36:42;;;;;;;23.13;13.02;;;8.10;83.80;;;;;;4906511;29;20119;-75
2021/04/19 06:39:10;;;;;;;20.52;12.88;;;8.10;84.10;;;;;;4906577;29;20504;-75
2021/04/19 06:41:36;;;;;;;18.63;12.95;;;8.10;84.10;;;;;;4908882;29;20036;-75
2021/04/19 06:44:02;;;;;;;23.35;13.25;;;8.10;84.20;;;;;;4913796;29;20032;-75
2021/04/19 06:46:34;;;;;;;23.67;13.43;;;8.10;84.30;;;;;;4907756;29;20561;-75
2021/04/19 06:48:59;;;;;;;25.58;14.98;;;8.00;84.60;;;;;;4900738;29;20173;-75
2021/04/19 06:51:25;;;;;;;21.98;13.10;;;8.10;84.80;;;;;;4900877;29;20069;-75
2021/04/19 06:53:55;;;;;;;23.27;14.40;;;8.10;84.90;;;;;;4884038;29;20123;-75
2021/04/19 06:56:26;;;;;;;29.83;15.82;;;8.20;85.20;;;;;;4891950;29;20029;-75
2021/04/19 06:58:55;;;;;;;43.05;17.40;;;8.20;85.40;;;;;;4899486;29;20066;-75
2021/04/19 07:01:23;;;;;;;32.58;17.73;;;8.30;86.20;;;;;;4918107;29;20028;-75
2021/04/19 07:03:54;;;;;;;45.25;16.13;;;8.30;85.50;;;;;;4900717;29;20108;-75
2021/04/19 07:06:22;;;;;;;41.45;14.95;;;8.40;85.40;;;;;;4900597;29;20032;-75
2021/04/19 07:08:48;;;;;;;28.67;14.68;;;8.50;85.00;;;;;;4899171;29;20542;-76
2021/04/19 07:11:20;;;;;;;33.15;15.70;;;8.50;84.70;;;;;;4900562;29;20032;-75
2021/04/19 07:13:47;;;;;;;37.58;16.50;;;8.60;84.70;;;;;;4900140;29;20067;-75
2021/04/19 07:16:13;;;;;;;27.83;15.75;;;8.60;84.70;;;;;;4883709;29;20033;-75
2021/04/19 07:18:39;;;;;;;26.55;13.85;;;8.60;84.90;;;;;;4900291;29;20423;-75
2021/04/19 07:21:06;;;;;;;28.55;14.07;;;8.70;85.70;;;;;;4900187;29;20036;-75
2021/04/19 07:23:35;;;;;;;28.98;14.98;;;8.70;85.00;;;;;;4900294;29;20045;-76
2021/04/19 07:26:02;;;;;;;29.98;14.35;;;8.70;84.80;;;;;;4900091;29;20410;-75
2021/04/19 07:28:28;;;;;;;34.85;17.60;;;8.70;84.80;;;;;;4900480;29;20475;-75
2021/04/19 07:31:00;;;;;;;28.75;18.35;;;8.60;85.10;;;;;;4883260;29;20088;-75
2021/04/19 07:33:33;;;;;;;28.08;16.15;;;8.60;85.60;;;;;;4898830;29;20112;-75
2021/04/19 07:36:25;;;;;;;30.77;16.65;;;8.50;85.70;;;;;;4898739;29;20056;-75
2021/04/19 07:38:53;;;;;;;24.15;17.08;;;8.50;86.30;;;;;;4899956;29;20033;-75
2021/04/19 07:41:19;;;;;;;28.42;16.27;;;8.50;86.20;;;;;;4898753;29;20431;-75
2021/04/19 07:43:46;;;;;;;28.45;16.42;;;8.60;86.10;;;;;;4902140;29;20067;-76
2021/04/19 07:46:15;;;;;;;26.33;18.02;;;8.60;86.10;;;;;;4882812;29;20032;-75
2021/04/19 07:48:45;;;;;;;31.80;17.63;;;8.70;86.10;;;;;;4898362;29;20029;-74
2021/04/19 07:51:31;;;;;;;26.13;18.25;;;8.70;86.10;;;;;;4898399;29;20033;-75
2021/04/19 07:54:22;;;;;;;28.65;18.27;;;8.70;86.30;;;;;;4899602;29;20039;-75
2021/04/19 07:56:54;;;;;;;30.40;16.13;;;8.70;86.40;;;;;;4894773;29;20058;-75
2021/04/19 07:59:22;;;;;;;31.30;17.67;;;8.70;86.40;;;;;;4899488;29;20021;-75
2021/04/19 08:02:05;;;;;;;31.65;17.40;;;8.70;86.50;;;;;;4917163;29;20418;-75
2021/04/19 08:04:33;;;;;;;30.45;18.60;;;8.60;86.90;;;;;;4917099;29;20031;-75
2021/04/19 08:06:59;;;;;;;31.80;19.25;;;8.60;87.10;;;;;;4917048;29;20034;-75
2021/04/19 08:09:29;;;;;;;31.73;18.33;;;8.50;87.50;;;;;;4918218;29;20031;-75
2021/04/19 08:11:58;;;;;;;31.35;19.20;;;8.50;87.90;;;;;;4918081;29;20028;-75
2021/04/19 08:14:28;;;;;;;29.58;18.60;;;8.40;88.20;;;;;;4912765;29;20060;-75
2021/04/19 08:17:09;;;;;;;33.00;18.45;;;8.50;88.50;;;;;;4882391;29;20100;-75
2021/04/19 08:19:39;;;;;;;27.40;17.50;;;8.50;88.60;;;;;;4898894;29;20021;-75
2021/04/19 08:22:40;;;;;;;30.92;19.75;;;8.60;88.40;;;;;;4898929;29;20486;-75
2021/04/19 08:25:18;;;;;;;25.88;17.48;;;8.70;88.60;;;;;;4829111;29;20487;-75
2021/04/19 08:28:14;;;;;;;30.67;18.50;;;8.80;88.70;;;;;;4893017;29;20108;-75
2021/04/19 08:30:42;;;;;;;25.27;16.85;;;8.80;88.40;;;;;;4880058;29;20033;-75
2021/04/19 08:33:09;;;;;;;28.63;17.48;;;8.90;88.10;;;;;;4878735;29;20055;-75
2021/04/19 08:35:37;;;;;;;27.00;18.10;;;9.00;88.10;;;;;;4878738;29;20159;-75
2021/04/19 08:38:04;;;;;;;27.80;19.38;;;9.00;87.80;;;;;;4878904;29;20072;-75
2021/04/19 08:40:32;;;;;;;27.85;19.02;;;9.00;88.00;;;;;;4878856;29;20105;-75
2021/04/19 08:42:58;;;;;;;25.08;17.63;;;8.90;88.50;;;;;;4878841;29;20044;-75
2021/04/19 08:45:25;;;;;;;27.35;17.95;;;8.90;88.60;;;;;;4887303;29;20430;-75
2021/04/19 08:47:53;;;;;;;29.67;18.52;;;9.00;89.10;;;;;;4906200;29;20056;-75
2021/04/19 08:50:27;;;;;;;29.25;18.40;;;9.00;88.20;;;;;;4881570;29;20423;-75
2021/04/19 08:52:54;;;;;;;28.40;18.92;;;9.10;88.10;;;;;;4882448;29;20060;-76
2021/04/19 08:55:21;;;;;;;26.90;17.85;;;9.00;88.00;;;;;;4904437;29;20028;-75
2021/04/19 08:57:48;;;;;;;25.70;17.60;;;9.00;88.00;;;;;;4914840;29;20075;-76
2021/04/19 09:00:22;;;;;;;30.20;19.20;;;9.00;87.80;;;;;;4897019;29;20040;-75
2021/04/19 09:02:48;;;;;;;31.02;19.77;;;9.10;87.70;;;;;;4914624;29;20397;-75
2021/04/19 09:05:16;;;;;;;30.00;18.92;;;9.10;87.70;;;;;;4916615;29;20032;-75
2021/04/19 09:07:46;;;;;;;30.40;19.38;;;9.10;87.90;;;;;;4915977;29;20087;-75
2021/04/19 09:10:17;;;;;;;29.58;19.35;;;9.10;88.00;;;;;;4915925;29;20036;-75
2021/04/19 09:12:44;;;;;;;26.13;17.83;;;9.20;87.90;;;;;;4914806;29;20115;-75
2021/04/19 09:15:12;;;;;;;34.42;21.20;;;9.20;87.40;;;;;;4915862;29;20054;-75
2021/04/19 09:17:39;;;;;;;33.03;18.88;;;9.20;87.40;;;;;;4915888;29;20024;-75
2021/04/19 09:20:08;;;;;;;30.25;20.65;;;9.10;87.60;;;;;;4903684;29;20427;-76
2021/04/19 09:22:34;;;;;;;26.63;19.25;;;9.10;87.70;;;;;;4897048;29;20411;-75
2021/04/19 09:25:08;;;;;;;28.40;19.17;;;9.10;87.80;;;;;;4881369;29;20037;-76
2021/04/19 09:27:41;;;;;;;27.35;19.85;;;9.10;87.90;;;;;;4896997;29;20028;-75
2021/04/19 09:30:27;;;;;;;34.40;21.33;;;9.20;87.70;;;;;;4896966;29;20029;-75
2021/04/19 09:33:05;;;;;;;23.98;18.60;;;9.30;87.80;;;;;;4877845;29;20415;-75
2021/04/19 09:35:42;;;;;;;40.70;23.88;;;9.30;87.70;;;;;;4879213;29;20025;-75
2021/04/19 09:38:40;;;;;;;43.33;28.50;;;9.30;87.50;;;;;;4879005;29;20049;-75
2021/04/19 09:41:13;;;;;;;54.53;31.83;;;9.30;87.50;;;;;;4877760;29;20057;-76
2021/04/19 09:43:58;;;;;;;51.80;30.58;;;9.40;87.50;;;;;;4878013;29;20029;-75
2021/04/19 09:46:31;;;;;;;45.42;28.85;;;9.40;87.70;;;;;;4905249;29;20071;-75
2021/04/19 09:49:04;;;;;;;49.75;32.05;;;9.50;87.50;;;;;;4906781;29;20033;-75
2021/04/19 09:51:43;;;;;;;47.47;29.35;;;9.40;87.30;;;;;;4915452;29;20083;-76
2021/04/19 09:54:09;;;;;;;45.95;30.23;;;9.40;87.40;;;;;;4915541;29;20508;-88
2021/04/19 09:56:40;;;;;;;46.33;30.30;;;9.40;87.20;;;;;;4915408;29;20036;-87
2021/04/19 09:59:08;;;;;;;39.50;25.00;;;9.40;88.00;;;;;;4916583;29;20024;-88
2021/04/19 10:01:36;;;;;;;41.55;25.52;;;9.40;87.60;;;;;;4915557;29;20024;-88
2021/04/19 10:04:03;;;;;;;39.35;25.85;;;9.30;87.90;;;;;;4901731;29;20091;-88
2021/04/19 10:06:37;;;;;;;38.92;24.73;;;9.40;88.20;;;;;;4897846;29;20029;-88
2021/04/19 10:09:07;;;;;;;36.50;24.63;;;9.30;88.10;;;;;;4897681;29;20107;-88
2021/04/19 10:11:35;;;;;;;38.72;24.73;;;9.30;88.20;;;;;;4896690;29;20115;-87
2021/04/19 10:14:13;;;;;;;37.65;24.88;;;9.30;88.20;;;;;;4896649;29;20513;-86
2021/04/19 10:16:47;;;;;;;42.10;26.67;;;9.30;88.50;;;;;;4900025;29;20044;-88
2021/04/19 10:19:22;;;;;;;37.88;25.70;;;9.30;88.20;;;;;;4906811;29;20434;-89
2021/04/19 10:22:04;;;;;;;36.03;25.20;;;9.30;88.40;;;;;;4904511;29;20032;-88
2021/04/19 10:24:32;;;;;;;43.05;26.00;;;9.30;88.60;;;;;;4896728;29;20168;-88
2021/04/19 10:26:58;;;;;;;39.37;26.47;;;9.40;88.40;;;;;;4898100;29;20060;-89
2021/04/19 10:29:27;;;;;;;36.80;24.75;;;9.30;88.30;;;;;;4898402;29;20111;-88
2021/04/19 10:31:55;;;;;;;45.75;26.88;;;9.30;88.40;;;;;;4898098;29;20091;-88
2021/04/19 10:34:29;;;;;;;40.65;25.67;;;9.30;88.50;;;;;;4901815;29;20009;-89
2021/04/19 10:37:03;;;;;;;39.67;26.20;;;9.30;88.80;;;;;;4901309;29;20382;-88
2021/04/19 10:39:32;;;;;;;40.53;26.55;;;9.30;88.80;;;;;;4916352;29;20036;-88
2021/04/19 10:41:59;;;;;;;;;;;9.30;88.70;;;;;;4901692;29;20029;-88
2021/04/19 10:44:42;;;;;;;33.50;23.10;;;9.30;88.30;;;;;;4901207;29;20329;-88
2021/04/19 10:47:13;;;;;;;36.75;24.25;;;9.30;88.70;;;;;;4900602;29;20025;-87
2021/04/19 10:49:40;;;;;;;37.45;24.88;;;9.30;88.50;;;;;;4907007;29;20132;-87
2021/04/19 10:52:08;;;;;;;35.28;24.77;;;9.30;88.50;;;;;;4919543;29;20035;-88
2021/04/19 10:54:37;;;;;;;41.22;25.27;;;9.30;88.50;;;;;;4913689;29;20044;-88
2021/04/19 10:57:04;;;;;;;43.13;28.33;;;9.40;88.50;;;;;;4901120;29;20080;-88
2021/04/19 10:59:31;;;;;;;39.28;25.40;;;9.40;88.40;;;;;;4899925;29;20402;-86
2021/04/19 11:02:06;;;;;;;41.35;27.15;;;9.50;88.60;;;;;;4899314;29;20028;-86
2021/04/19 11:04:34;;;;;;;41.05;26.38;;;9.50;88.50;;;;;;4899707;29;20674;-86
2021/04/19 11:07:30;;;;;;;37.30;25.90;;;9.60;88.30;;;;;;4900912;29;20394;-86
2021/04/19 11:10:23;;;;;;;40.63;27.10;;;9.70;88.30;;;;;;4899699;29;20036;-86
2021/04/19 11:13:04;;;;;;;42.55;27.30;;;9.80;88.00;;;;;;4900753;29;20020;-85
2021/04/19 11:15:41;;;;;;;37.08;24.10;;;9.80;88.10;;;;;;4900252;29;20047;-85
2021/04/19 11:18:21;;;;;;;36.45;25.92;;;9.90;88.00;;;;;;4900610;29;20107;-86
2021/04/19 11:20:51;;;;;;;34.55;23.10;;;9.90;87.60;;;;;;4899268;29;20029;-86
2021/04/19 11:23:36;;;;;;;33.28;23.60;;;9.90;87.60;;;;;;4899238;29;20189;-86
2021/04/19 11:26:08;;;;;;;34.53;24.00;;;9.90;87.80;;;;;;4899224;29;20390;-86
2021/04/19 11:28:42;;;;;;;30.17;22.48;;;10.00;87.60;;;;;;4899151;29;20120;-86
2021/04/19 11:31:16;;;;;;;33.28;22.73;;;10.00;87.30;;;;;;4900377;29;20109;-86
2021/04/19 11:33:42;;;;;;;30.85;23.38;;;10.00;87.00;;;;;;4913013;29;20397;-86
2021/04/19 11:36:09;;;;;;;32.92;22.88;;;10.10;87.00;;;;;;4919251;29;20036;-86
2021/04/19 11:38:37;;;;;;;33.63;24.00;;;10.10;87.30;;;;;;4919203;29;20130;-86
2021/04/19 11:41:05;;;;;;;31.83;23.83;;;10.10;87.50;;;;;;4919345;29;20058;-85
2021/04/19 11:43:33;;;;;;;33.50;22.60;;;10.10;87.50;;;;;;4917236;29;20139;-86
2021/04/19 11:46:11;;;;;;;33.10;24.02;;;10.20;87.20;;;;;;4917466;29;20024;-85
2021/04/19 11:48:46;;;;;;;33.60;24.92;;;10.30;87.00;;;;;;4905166;29;20386;-85
2021/04/19 11:51:14;;;;;;;36.25;25.77;;;10.40;86.90;;;;;;4899416;29;20057;-85
2021/04/19 11:53:42;;;;;;;39.63;25.98;;;10.40;86.70;;;;;;4900264;29;20378;-85
2021/04/19 11:56:09;;;;;;;33.55;24.55;;;10.40;86.60;;;;;;4899907;29;20425;-85
2021/04/19 11:58:46;;;;;;;34.33;25.38;;;10.40;86.60;;;;;;4898689;29;20025;-85
2021/04/19 12:01:18;;;;;;;37.70;25.35;;;10.50;86.50;;;;;;4910150;29;20202;-85
2021/04/19 12:03:44;;;;;;;38.60;25.38;;;10.50;86.50;;;;;;4902245;29;20370;-85
2021/04/19 12:06:12;;;;;;;36.00;25.63;;;10.50;86.40;;;;;;4918103;29;20027;-85
2021/04/19 12:08:42;;;;;;;38.72;26.13;;;10.50;86.30;;;;;;4902315;29;20482;-85
2021/04/19 12:11:10;;;;;;;36.38;24.58;;;10.40;86.50;;;;;;4898455;29;20033;-86
2021/04/19 12:13:36;;;;;;;38.53;26.50;;;10.40;86.80;;;;;;4899294;29;20494;-85
2021/04/19 12:16:02;;;;;;;33.00;25.05;;;10.40;86.90;;;;;;4899623;29;20032;-84
2021/04/19 12:18:32;;;;;;;36.35;25.77;;;10.40;87.00;;;;;;4882986;29;20442;-85
2021/04/19 12:20:57;;;;;;;33.35;22.42;;;10.40;87.10;;;;;;4898496;29;20115;-85
2021/04/19 12:23:23;;;;;;;31.90;22.35;;;10.50;87.00;;;;;;4898916;29;20064;-77
2021/04/19 12:25:53;;;;;;;33.45;22.67;;;10.50;86.50;;;;;;4897778;29;20044;-76
2021/04/19 12:28:23;;;;;;;36.88;24.13;;;10.60;86.30;;;;;;4899299;29;20025;-76
2021/04/19 12:30:53;;;;;;;32.70;23.38;;;10.60;86.20;;;;;;4898500;29;20064;-78
2021/04/19 12:33:19;;;;;;;32.85;24.08;;;10.70;86.30;;;;;;4882504;29;20033;-77
2021/04/19 12:35:46;;;;;;;33.00;22.63;;;10.70;86.50;;;;;;4897904;29;20363;-77
2021/04/19 12:38:13;;;;;;;33.15;23.10;;;10.70;86.50;;;;;;4897307;29;20118;-76
2021/04/19 12:40:39;;;;;;;35.55;24.48;;;10.80;86.40;;;;;;4897403;29;20029;-77
2021/04/19 12:43:05;;;;;;;33.92;24.15;;;10.80;86.50;;;;;;4897461;29;20040;-78
2021/04/19 12:45:32;;;;;;;31.48;23.65;;;10.80;86.70;;;;;;4898633;29;20040;-78
2021/04/19 12:48:02;;;;;;;28.73;22.20;;;10.80;87.00;;;;;;4897588;29;20395;-78
2021/04/19 12:50:29;;;;;;;32.03;23.50;;;11.00;86.70;;;;;;4898198;29;20043;-77
2021/04/19 12:52:57;;;;;;;35.92;25.75;;;11.10;86.60;;;;;;4901002;29;20051;-77
2021/04/19 12:55:23;;;;;;;36.63;27.75;;;11.30;86.30;;;;;;4880609;29;20499;-77